Sea Iris — 3EXY4 — position and weather

sailwx.info

Track history (hours):
 
Tides and Currents Weather Stations Pressure Air Temp Water Temp Dewpoint Dewpoint Depression Visibility Wind Speed Wind Dir Waves Ship Positions

Sea Iris

Last reported at 2018-Apr-24 22:57 UTC. Time now 2018-Apr-26 11:34 UTC.
Position N 49°44' W 003°37'.

Length 189 m; draft 12.7 m.

Type: Cargo ship. MMSI: 351012000.

Date/timePositionNaut miles runAvg speedWind from/ knotsBaromVisibWave heightAir tempDewpointWater temp
2018-Apr-24 22:57N 49°44' W 003°37'710.8
2018-Apr-24 22:18N 49°47' W 003°27'311.0
2018-Apr-24 22:00N 49°49' W 003°23'511.1
2018-Apr-24 21:30N 49°52' W 003°15'611.2
2018-Apr-24 20:56N 49°55' W 003°07'511.3
2018-Apr-24 20:30N 49°57' W 003°00'611.2
2018-Apr-24 20:00N 49°59' W 002°52'511.0
2018-Apr-24 19:31N 50°01' W 002°44'610.8
2018-Apr-24 19:00N 50°02' W 002°36'710.4
2018-Apr-24 18:20N 50°04' W 002°25'16 9.5
2018-Apr-24 16:41N 50°08' W 002°02'2 8.8
2018-Apr-24 16:30N 50°09' W 001°59'4 8.6
2018-Apr-24 16:00N 50°10' W 001°53'4 8.4
2018-Apr-24 15:31N 50°11' W 001°47'4 8.1
2018-Apr-24 15:01N 50°12' W 001°40'4 8.2
2018-Apr-24 14:31N 50°13' W 001°34'4 8.5
2018-Apr-24 14:01N 50°14' W 001°28'4 8.8
2018-Apr-24 13:30N 50°15' W 001°21'5 9.3
2018-Apr-24 12:58N 50°16' W 001°14'510.1
2018-Apr-24 12:26N 50°18' W 001°06'511.0
2018-Apr-24 12:00N 50°19' W 000°58'611.6
2018-Apr-24 11:30N 50°21' W 000°50'611.8
2018-Apr-24 11:00N 50°22' W 000°41'612.1
2018-Apr-24 10:31N 50°24' W 000°32'612.0
2018-Apr-24 10:00N 50°25' W 000°22'611.9
2018-Apr-24 09:30N 50°27' W 000°13'611.7
2018-Apr-24 09:01N 50°29' W 000°05'611.7
2018-Apr-24 08:30N 50°30' E 000°04'611.5
2018-Apr-24 08:00N 50°31' E 000°13'611.2
2018-Apr-24 07:31N 50°33' E 000°21'510.9
2018-Apr-24 07:00N 50°34' E 000°30'510.5
2018-Apr-24 06:30N 50°37' E 000°37'510.3
2018-Apr-24 06:00N 50°40' E 000°44'5 9.9
2018-Apr-24 05:31N 50°42' E 000°50'5 9.6
2018-Apr-24 05:00N 50°45' E 000°57'5 9.4
2018-Apr-24 04:31N 50°48' E 001°03'6 9.4
2018-Apr-24 03:55N 50°51' E 001°10'4 9.5
2018-Apr-24 03:28N 50°53' E 001°16'510.0
2018-Apr-24 03:00N 50°57' E 001°21'510.7
2018-Apr-24 02:30N 51°01' E 001°26'611.3
2018-Apr-24 02:00N 51°05' E 001°32'611.6
2018-Apr-24 01:31N 51°09' E 001°39'611.5
2018-Apr-24 01:00N 51°13' E 001°45'511.0
2018-Apr-24 00:30N 51°18' E 001°49'510.7
2018-Apr-24 00:00N 51°23' E 001°53'510.3
2018-Apr-23 23:31N 51°27' E 001°57'510.1
2018-Apr-23 23:01N 51°31' E 002°01'510.0
2018-Apr-23 22:30N 51°35' E 002°07'5 9.7
2018-Apr-23 21:59N 51°39' E 002°12'5 9.2
2018-Apr-23 21:30N 51°42' E 002°17'5 9.4
2018-Apr-23 21:00N 51°46' E 002°22'5 9.1
2018-Apr-23 20:26N 51°50' E 002°27'6 9.0
2018-Apr-23 19:45N 51°55' E 002°32'2 9.1
2018-Apr-23 19:30N 51°57' E 002°34'6610.9
2018-Apr-23 13:25N 53°03' E 002°25'612.4
2018-Apr-23 12:59N 53°07' E 002°19'912.7
2018-Apr-23 12:14N 53°14' E 002°08'312.4
2018-Apr-23 12:00N 53°16' E 002°05'8211.1
2018-Apr-23 04:38N 54°21' E 000°41'211.0
2018-Apr-23 04:29N 54°22' E 000°38'511.0
2018-Apr-23 04:00N 54°25' E 000°31'611.0
2018-Apr-23 03:30N 54°28' E 000°23'510.9
2018-Apr-23 03:01N 54°30' E 000°14'510.9
2018-Apr-23 02:30N 54°33' E 000°06'611.1
2018-Apr-23 02:01N 54°36' W 000°02'611.2
2018-Apr-23 01:31N 54°38' W 000°10'611.3
2018-Apr-23 01:00N 54°41' W 000°19'1811.6
2018-Apr-22 23:29N 54°50' W 000°46'511.6
2018-Apr-22 23:01N 54°53' W 000°54'611.6
2018-Apr-22 22:30N 54°55' W 001°03'611.6
2018-Apr-22 22:00N 54°58' W 001°12'611.4
2018-Apr-22 21:30N 55°01' W 001°20'4 7.6
2018-Apr-22 21:00N 55°00' W 001°27'1 2.0
2018-Apr-22 20:30N 54°59' W 001°27'0 0.0
2018-Apr-22 19:54N 54°59' W 001°27'0 0.0
2018-Apr-22 19:30N 54°59' W 001°27'0 0.0
2018-Apr-22 19:00N 54°59' W 001°27'0 0.0
2018-Apr-22 18:30N 54°59' W 001°27'0 0.0
2018-Apr-22 18:00N 54°59' W 001°27'0 0.0
2018-Apr-22 17:27N 54°59' W 001°27'0 0.0
2018-Apr-22 16:48N 54°59' W 001°27'0 0.0
2018-Apr-22 16:30N 54°59' W 001°27'0 0.0
2018-Apr-22 16:00N 54°59' W 001°27'0 0.0
2018-Apr-22 15:27N 54°59' W 001°27'0 0.0
2018-Apr-22 15:00N 54°59' W 001°27'0 0.0
2018-Apr-22 14:27N 54°59' W 001°27'0 0.0
2018-Apr-22 14:00N 54°59' W 001°27'0 0.0
2018-Apr-22 13:30N 54°59' W 001°27'0 0.0
2018-Apr-22 13:00N 54°59' W 001°27'0 0.0
2018-Apr-22 12:30N 54°59' W 001°27'0 0.0
2018-Apr-22 12:00N 54°59' W 001°27'0 0.0
2018-Apr-22 11:30N 54°59' W 001°27'0 0.0
2018-Apr-22 11:00N 54°59' W 001°27'0 0.0
2018-Apr-22 10:30N 54°59' W 001°27'0 0.0
2018-Apr-22 10:00N 54°59' W 001°27'0 0.0
2018-Apr-22 09:30N 54°59' W 001°27'0 0.0
2018-Apr-22 09:00N 54°59' W 001°27'0 0.0
2018-Apr-22 08:30N 54°59' W 001°27'0 0.0
2018-Apr-22 08:00N 54°59' W 001°27'0 0.0
2018-Apr-22 07:21N 54°59' W 001°27'0 0.0
2018-Apr-22 06:51N 54°59' W 001°27'0 0.0
2018-Apr-22 06:21N 54°59' W 001°27'0 0.0
2018-Apr-22 05:54N 54°59' W 001°27'0 0.0
2018-Apr-22 05:24N 54°59' W 001°27'0 0.0
2018-Apr-22 04:54N 54°59' W 001°27'0 0.0
2018-Apr-22 04:24N 54°59' W 001°27'0 0.0
2018-Apr-22 03:54N 54°59' W 001°27'0 0.0
2018-Apr-22 03:21N 54°59' W 001°27'0 0.0
2018-Apr-22 02:54N 54°59' W 001°27'0 0.0
2018-Apr-22 02:24N 54°59' W 001°27'0 0.0
2018-Apr-22 01:57N 54°59' W 001°27'0 0.0
2018-Apr-22 01:27N 54°59' W 001°27'0 0.0
2018-Apr-22 00:57N 54°59' W 001°27'0 0.0
2018-Apr-22 00:27N 54°59' W 001°27'0 0.0
2018-Apr-21 23:57N 54°59' W 001°27'0 0.0
2018-Apr-21 23:30N 54°59' W 001°27'0 0.0
2018-Apr-21 23:00N 54°59' W 001°27'0 0.0
2018-Apr-21 22:30N 54°59' W 001°27'0 0.0
2018-Apr-21 22:00N 54°59' W 001°27'0 0.0
2018-Apr-21 21:30N 54°59' W 001°27'0 0.0
2018-Apr-21 21:00N 54°59' W 001°27'0 0.0
2018-Apr-21 20:30N 54°59' W 001°27'0 0.0
2018-Apr-21 20:00N 54°59' W 001°27'0 0.0
2018-Apr-21 19:30N 54°59' W 001°27'0 0.0
2018-Apr-21 19:00N 54°59' W 001°27'0 0.0
2018-Apr-21 18:30N 54°59' W 001°27'0 0.0
2018-Apr-21 18:00N 54°59' W 001°27'0 0.0
2018-Apr-21 17:30N 54°59' W 001°27'0 0.0
2018-Apr-21 17:00N 54°59' W 001°27'0 0.0
2018-Apr-21 16:30N 54°59' W 001°27'0 0.0
2018-Apr-21 16:00N 54°59' W 001°27'0 0.0
2018-Apr-21 15:30N 54°59' W 001°27'0 0.0
2018-Apr-21 14:54N 54°59' W 001°27'0 0.0
2018-Apr-21 14:24N 54°59' W 001°27'0 0.0
2018-Apr-21 13:57N 54°59' W 001°27'0 0.0
2018-Apr-21 13:27N 54°59' W 001°27'0 0.0
2018-Apr-21 12:54N 54°59' W 001°27'0 0.0
2018-Apr-21 12:24N 54°59' W 001°27'0 0.0
2018-Apr-21 12:00N 54°59' W 001°27'0 0.0
2018-Apr-21 11:27N 54°59' W 001°27'0 0.0
2018-Apr-21 11:00N 54°59' W 001°27'0 0.0
2018-Apr-21 10:30N 54°59' W 001°27'0 0.0
2018-Apr-21 09:57N 54°59' W 001°27'0 0.0
2018-Apr-21 09:30N 54°59' W 001°27'0 0.0
2018-Apr-21 09:00N 54°59' W 001°27'0 0.0
2018-Apr-21 08:30N 54°59' W 001°27'0 0.0
2018-Apr-21 08:00N 54°59' W 001°27'0 0.0
2018-Apr-21 07:30N 54°59' W 001°27'0 0.0
2018-Apr-21 07:00N 54°59' W 001°27'0 0.0
2018-Apr-21 06:30N 54°59' W 001°27'0 0.0
2018-Apr-21 05:59N 54°59' W 001°27'0 0.0
2018-Apr-21 05:29N 54°59' W 001°27'0 0.0
2018-Apr-21 04:59N 54°59' W 001°27'0 0.0
2018-Apr-21 04:29N 54°59' W 001°27'0 0.0
2018-Apr-21 03:59N 54°59' W 001°27'0 0.0
2018-Apr-21 03:29N 54°59' W 001°27'0 0.0
2018-Apr-21 02:59N 54°59' W 001°27'0 0.0
2018-Apr-21 02:29N 54°59' W 001°27'0 0.0
2018-Apr-21 01:59N 54°59' W 001°27'0 0.0
2018-Apr-21 01:29N 54°59' W 001°27'0 0.0
2018-Apr-21 00:59N 54°59' W 001°27'0 0.0
2018-Apr-21 00:29N 54°59' W 001°27'0 0.0
2018-Apr-20 23:59N 54°59' W 001°27'0 0.0
2018-Apr-20 23:29N 54°59' W 001°27'0 0.0
2018-Apr-20 22:59N 54°59' W 001°27'0 0.0
2018-Apr-20 22:29N 54°59' W 001°27'0 0.0
2018-Apr-20 21:59N 54°59' W 001°27'0 0.0
2018-Apr-20 21:29N 54°59' W 001°27'0 0.0
2018-Apr-20 20:59N 54°59' W 001°27'0 0.0
2018-Apr-20 20:29N 54°59' W 001°27'0 0.0
2018-Apr-20 19:59N 54°59' W 001°27'0 0.0
2018-Apr-20 19:29N 54°59' W 001°27'0 0.0
2018-Apr-20 18:59N 54°59' W 001°27'0 0.0
2018-Apr-20 18:29N 54°59' W 001°27'0 0.0
2018-Apr-20 17:59N 54°59' W 001°27'0 0.0
2018-Apr-20 17:29N 54°59' W 001°27'0 0.0
2018-Apr-20 16:59N 54°59' W 001°27'0 0.0
2018-Apr-20 16:29N 54°59' W 001°27'0 0.0
2018-Apr-20 15:59N 54°59' W 001°27'0 0.0
2018-Apr-20 15:29N 54°59' W 001°27'0 0.0
2018-Apr-20 14:59N 54°59' W 001°27'0 0.0
2018-Apr-20 14:29N 54°59' W 001°27'0 0.0
2018-Apr-20 13:56N 54°59' W 001°27'0 0.0
2018-Apr-20 13:29N 54°59' W 001°27'0 0.0
2018-Apr-20 12:59N 54°59' W 001°27'0 0.0
2018-Apr-20 12:29N 54°59' W 001°27'0 0.0
2018-Apr-20 11:59N 54°59' W 001°27'0 0.0
2018-Apr-20 11:29N 54°59' W 001°27'0 0.0
2018-Apr-20 10:59N 54°59' W 001°27'0 0.0
2018-Apr-20 10:29N 54°59' W 001°27'0 0.0
2018-Apr-20 09:59N 54°59' W 001°27'0 0.0
2018-Apr-20 09:29N 54°59' W 001°27'0 0.0
2018-Apr-20 08:59N 54°59' W 001°27'0 0.0
2018-Apr-20 08:23N 54°59' W 001°27'0 0.0
2018-Apr-20 07:59N 54°59' W 001°27'0 0.0
2018-Apr-20 07:29N 54°59' W 001°27'0 0.0
2018-Apr-20 06:59N 54°59' W 001°27'0 0.0
2018-Apr-20 06:29N 54°59' W 001°27'0 0.0
2018-Apr-20 05:59N 54°59' W 001°27'0 0.0
2018-Apr-20 05:29N 54°59' W 001°27'0 0.0
2018-Apr-20 04:59N 54°59' W 001°27'0 0.0
2018-Apr-20 04:29N 54°59' W 001°27'0 0.0
2018-Apr-20 03:59N 54°59' W 001°27'0 0.0
2018-Apr-20 03:29N 54°59' W 001°27'0 0.0
2018-Apr-20 02:59N 54°59' W 001°27'0 0.0
2018-Apr-20 02:29N 54°59' W 001°27'0 0.0
2018-Apr-20 01:59N 54°59' W 001°27'0 0.0
2018-Apr-20 01:29N 54°59' W 001°27'0 0.0
2018-Apr-20 00:59N 54°59' W 001°27'0 0.0
2018-Apr-20 00:29N 54°59' W 001°27'0 0.0
2018-Apr-19 23:59N 54°59' W 001°27'0 0.0
2018-Apr-19 23:29N 54°59' W 001°27'0 0.0
2018-Apr-19 22:59N 54°59' W 001°27'0 0.0
2018-Apr-19 22:29N 54°59' W 001°27'0 0.0
2018-Apr-19 21:59N 54°59' W 001°27'0 0.0
2018-Apr-19 21:29N 54°59' W 001°27'0 0.0
2018-Apr-19 20:59N 54°59' W 001°27'0 0.0
2018-Apr-19 20:29N 54°59' W 001°27'0 0.0
2018-Apr-19 19:59N 54°59' W 001°27'0 0.0
2018-Apr-19 19:29N 54°59' W 001°27'0 0.0
2018-Apr-19 18:59N 54°59' W 001°27'0 0.0
2018-Apr-19 18:29N 54°59' W 001°27'0 0.0
2018-Apr-19 17:59N 54°59' W 001°27'0 0.0
2018-Apr-19 17:29N 54°59' W 001°27'0 0.0
2018-Apr-19 16:59N 54°59' W 001°27'0 0.0
2018-Apr-19 16:29N 54°59' W 001°27'0 0.0
2018-Apr-19 15:59N 54°59' W 001°27'0 0.0
2018-Apr-19 15:29N 54°59' W 001°27'0 0.0
2018-Apr-19 14:59N 54°59' W 001°27'0 0.0
2018-Apr-19 14:29N 54°59' W 001°27'0 0.0
2018-Apr-19 13:59N 54°59' W 001°27'0 0.0
2018-Apr-19 13:26N 54°59' W 001°27'0 0.0
2018-Apr-19 12:59N 54°59' W 001°27'0 0.0
2018-Apr-19 12:29N 54°59' W 001°27'0 0.0
2018-Apr-19 11:59N 54°59' W 001°27'0 0.0
2018-Apr-19 11:29N 54°59' W 001°27'0 0.0
2018-Apr-19 10:59N 54°59' W 001°27'0 0.0
2018-Apr-19 10:29N 54°59' W 001°27'0 0.0
2018-Apr-19 09:59N 54°59' W 001°27'0 0.0
2018-Apr-19 09:29N 54°59' W 001°27'0 0.0
2018-Apr-19 08:59N 54°59' W 001°27'0 0.0
2018-Apr-19 08:29N 54°59' W 001°27'0 0.0
2018-Apr-19 07:59N 54°59' W 001°27'0 0.0
2018-Apr-19 07:29N 54°59' W 001°27'0 0.0
2018-Apr-19 06:59N 54°59' W 001°27'0 0.0
2018-Apr-19 06:29N 54°59' W 001°27'0 0.0
2018-Apr-19 05:59N 54°59' W 001°27'0 0.0
2018-Apr-19 05:29N 54°59' W 001°27'0 0.0
2018-Apr-19 04:59N 54°59' W 001°27'0 0.0
2018-Apr-19 04:29N 54°59' W 001°27'0 0.0
2018-Apr-19 03:59N 54°59' W 001°27'0 0.0
2018-Apr-19 03:29N 54°59' W 001°27'0 0.0
2018-Apr-19 02:59N 54°59' W 001°27'0 0.0
2018-Apr-19 02:29N 54°59' W 001°27'0 0.0
2018-Apr-19 01:59N 54°59' W 001°27'0 0.0
2018-Apr-19 01:29N 54°59' W 001°27'0 0.0
2018-Apr-19 00:59N 54°59' W 001°27'0 0.0
2018-Apr-19 00:29N 54°59' W 001°27'0 0.0
2018-Apr-18 23:59N 54°59' W 001°27'0 0.0
2018-Apr-18 23:29N 54°59' W 001°27'0 0.0
2018-Apr-18 22:59N 54°59' W 001°27'0 0.0
2018-Apr-18 22:29N 54°59' W 001°27'0 0.0
2018-Apr-18 21:59N 54°59' W 001°27'0 0.0
2018-Apr-18 21:26N 54°59' W 001°27'0 0.0
2018-Apr-18 20:59N 54°59' W 001°27'0 0.0
2018-Apr-18 20:29N 54°59' W 001°27'0 0.0
2018-Apr-18 19:59N 54°59' W 001°27'0 0.0
2018-Apr-18 19:29N 54°59' W 001°27'0 0.0
2018-Apr-18 18:59N 54°59' W 001°27'0 0.0
2018-Apr-18 18:29N 54°59' W 001°27'0 0.0
2018-Apr-18 17:59N 54°59' W 001°27'0 0.0
2018-Apr-18 17:29N 54°59' W 001°27'0 0.0
2018-Apr-18 16:59N 54°59' W 001°27'0 0.0
2018-Apr-18 16:29N 54°59' W 001°27'0 0.0
2018-Apr-18 15:59N 54°59' W 001°27'0 0.0
2018-Apr-18 15:29N 54°59' W 001°27'0 0.0
2018-Apr-18 14:59N 54°59' W 001°27'0 0.0
2018-Apr-18 14:29N 54°59' W 001°27'0 0.0
2018-Apr-18 13:59N 54°59' W 001°27'0 0.0
2018-Apr-18 13:29N 54°59' W 001°27'0 0.0
2018-Apr-18 12:59N 54°59' W 001°27'0 0.0
2018-Apr-18 12:29N 54°59' W 001°27'0 0.0
2018-Apr-18 11:59N 54°59' W 001°27'0 0.0
2018-Apr-18 11:26N 54°59' W 001°27'0 0.0
2018-Apr-18 10:59N 54°59' W 001°27'0 0.0
2018-Apr-18 10:29N 54°59' W 001°27'0 0.0
2018-Apr-18 09:59N 54°59' W 001°27'0 0.0
2018-Apr-18 09:29N 54°59' W 001°27'0 0.0
2018-Apr-18 08:59N 54°59' W 001°27'0 0.0
2018-Apr-18 08:29N 54°59' W 001°27'0 0.0
2018-Apr-18 07:59N 54°59' W 001°27'0 0.0
2018-Apr-18 07:29N 54°59' W 001°27'0 0.0
2018-Apr-18 06:59N 54°59' W 001°27'0 0.0
2018-Apr-18 06:26N 54°59' W 001°27'0 0.0
2018-Apr-18 05:59N 54°59' W 001°27'0 0.0
2018-Apr-18 05:29N 54°59' W 001°27'0 0.0
2018-Apr-18 04:59N 54°59' W 001°27'0 0.0
2018-Apr-18 04:29N 54°59' W 001°27'0 0.0
2018-Apr-18 03:59N 54°59' W 001°27'0 0.0
2018-Apr-18 03:29N 54°59' W 001°27'0 0.0
2018-Apr-18 02:59N 54°59' W 001°27'0 0.0
2018-Apr-18 02:29N 54°59' W 001°27'0 0.0
2018-Apr-18 01:59N 54°59' W 001°27'0 0.0
2018-Apr-18 01:29N 54°59' W 001°27'0 0.0
2018-Apr-18 00:59N 54°59' W 001°27'0 0.0
2018-Apr-18 00:29N 54°59' W 001°27'0 0.0
2018-Apr-17 23:59N 54°59' W 001°27'0 0.0
2018-Apr-17 23:29N 54°59' W 001°27'0 0.0
2018-Apr-17 22:59N 54°59' W 001°27'0 0.0
2018-Apr-17 22:29N 54°59' W 001°27'0 0.0
2018-Apr-17 21:59N 54°59' W 001°27'0 0.0
2018-Apr-17 21:29N 54°59' W 001°27'0 0.0
2018-Apr-17 20:59N 54°59' W 001°27'0 0.0
2018-Apr-17 20:29N 54°59' W 001°27'0 0.0
2018-Apr-17 19:59N 54°59' W 001°27'0 0.0
2018-Apr-17 19:29N 54°59' W 001°27'0 0.0
2018-Apr-17 18:59N 54°59' W 001°27'0 0.0
2018-Apr-17 18:29N 54°59' W 001°27'0 0.0
2018-Apr-17 17:59N 54°59' W 001°27'0 0.0
2018-Apr-17 17:29N 54°59' W 001°27'0 0.0
2018-Apr-17 16:59N 54°59' W 001°27'0 0.0
2018-Apr-17 16:29N 54°59' W 001°27'0 0.0
2018-Apr-17 15:59N 54°59' W 001°27'0 0.0
2018-Apr-17 15:29N 54°59' W 001°27'0 0.0
2018-Apr-17 14:59N 54°59' W 001°27'0 0.0
2018-Apr-17 14:29N 54°59' W 001°27'0 0.0
2018-Apr-17 13:59N 54°59' W 001°27'0 0.0
2018-Apr-17 13:29N 54°59' W 001°27'0 0.0
2018-Apr-17 12:59N 54°59' W 001°27'0 0.0
2018-Apr-17 12:29N 54°59' W 001°27'0 0.0
2018-Apr-17 11:59N 54°59' W 001°27'0 0.0
2018-Apr-17 11:29N 54°59' W 001°27'0 0.0
2018-Apr-17 10:59N 54°59' W 001°27'0 0.0
2018-Apr-17 10:29N 54°59' W 001°27'0 0.3
2018-Apr-17 10:00N 54°59' W 001°27'3 5.0
2018-Apr-17 09:30N 55°01' W 001°24'3 6.2
2018-Apr-17 09:00N 55°03' W 001°20'2 3.8
2018-Apr-17 08:30N 55°05' W 001°19'4 7.3
2018-Apr-17 08:00N 55°08' W 001°18'5 9.7
2018-Apr-17 07:30N 55°13' W 001°16'510.9
2018-Apr-17 07:00N 55°18' W 001°13'510.7
2018-Apr-17 06:30N 55°24' W 001°11'510.8
2018-Apr-17 06:00N 55°29' W 001°08'511.0
2018-Apr-17 05:30N 55°34' W 001°08'611.1
2018-Apr-17 05:00N 55°40' W 001°08'611.2
2018-Apr-17 04:30N 55°45' W 001°08'611.4
2018-Apr-17 04:00N 55°51' W 001°08'611.9
2018-Apr-17 03:30N 55°57' W 001°08'612.0
2018-Apr-17 02:58N 56°03' W 001°08'612.2
2018-Apr-17 02:30N 56°09' W 001°08'612.4
2018-Apr-17 02:00N 56°15' W 001°08'7611.7
2018-Apr-16 19:32N 57°31' W 001°10'110.9
2018-Apr-16 19:28N 57°32' W 001°11'510.7
2018-Apr-16 19:00N 57°36' W 001°17'510.4
2018-Apr-16 18:30N 57°40' W 001°23'510.2
2018-Apr-16 18:00N 57°43' W 001°29'510.0
2018-Apr-16 17:30N 57°47' W 001°36'510.4
2018-Apr-16 17:00N 57°51' W 001°42'610.9
2018-Apr-16 16:30N 57°55' W 001°49'4611.5
2018-Apr-16 12:31N 58°30' W 002°45'012.3
2018-Apr-16 12:30N 58°30' W 002°46'713.4
2018-Apr-16 12:00N 58°35' W 002°53'713.4
2018-Apr-16 11:30N 58°41' W 003°00'612.8
2018-Apr-16 11:00N 58°42' W 003°12'713.6
2018-Apr-16 10:30N 58°43' W 003°26'20510.7
2018-Apr-15 15:19N 55°54' W 007°03'413.9
2018-Apr-15 15:00N 55°51' W 006°59'815.0
2018-Apr-15 14:30N 55°44' W 006°53'815.9
2018-Apr-15 14:00N 55°37' W 006°47'714.9
2018-Apr-15 13:30N 55°30' W 006°41'714.5
2018-Apr-15 13:00N 55°28' W 006°29'714.6
2018-Apr-15 12:30N 55°26' W 006°17'714.0
2018-Apr-15 12:00N 55°24' W 006°05'713.4
2018-Apr-15 11:30N 55°19' W 005°57'713.5
2018-Apr-15 11:00N 55°14' W 005°51'612.6
2018-Apr-15 10:30N 55°08' W 005°44'1511.8
2018-Apr-15 09:15N 54°56' W 005°30'311.5
2018-Apr-15 09:00N 54°54' W 005°27'510.5
2018-Apr-15 08:30N 54°50' W 005°21'510.0
2018-Apr-15 08:00N 54°46' W 005°16'510.7
2018-Apr-15 07:30N 54°41' W 005°12'611.5
2018-Apr-15 07:00N 54°35' W 005°10'611.6
2018-Apr-15 06:30N 54°30' W 005°08'611.8
2018-Apr-15 06:00N 54°24' W 005°07'612.4
2018-Apr-15 05:30N 54°18' W 005°05'712.8
2018-Apr-15 05:00N 54°11' W 005°03'4912.8
2018-Apr-15 01:12N 53°39' W 004°01'314.2
2018-Apr-15 01:00N 53°38' W 003°57'713.7
2018-Apr-15 00:30N 53°34' W 003°47'613.2
2018-Apr-15 00:01N 53°33' W 003°36'713.2
2018-Apr-14 23:30N 53°33' W 003°25'510.1
2018-Apr-14 23:00N 53°32' W 003°17'  
Track history (hours):
 
Tides and Currents Weather Stations Pressure Air Temp Water Temp Dewpoint Dewpoint Depression Visibility Wind Speed Wind Dir Waves Ship Positions

Sea Iris

Last reported at 2018-Apr-24 22:57 UTC. Time now 2018-Apr-26 11:34 UTC.
Position N 49°44' W 003°37'.

Length 189 m; draft 12.7 m.

Type: Cargo ship. MMSI: 351012000.

Date/timePositionNaut miles runAvg speedWind from/ knotsBaromVisibWave heightAir tempDewpointWater temp
2018-Apr-24 22:57N 49°44' W 003°37'710.8
2018-Apr-24 22:18N 49°47' W 003°27'311.0
2018-Apr-24 22:00N 49°49' W 003°23'511.1
2018-Apr-24 21:30N 49°52' W 003°15'611.2
2018-Apr-24 20:56N 49°55' W 003°07'511.3
2018-Apr-24 20:30N 49°57' W 003°00'611.2
2018-Apr-24 20:00N 49°59' W 002°52'511.0
2018-Apr-24 19:31N 50°01' W 002°44'610.8
2018-Apr-24 19:00N 50°02' W 002°36'710.4
2018-Apr-24 18:20N 50°04' W 002°25'16 9.5
2018-Apr-24 16:41N 50°08' W 002°02'2 8.8
2018-Apr-24 16:30N 50°09' W 001°59'4 8.6
2018-Apr-24 16:00N 50°10' W 001°53'4 8.4
2018-Apr-24 15:31N 50°11' W 001°47'4 8.1
2018-Apr-24 15:01N 50°12' W 001°40'4 8.2
2018-Apr-24 14:31N 50°13' W 001°34'4 8.5
2018-Apr-24 14:01N 50°14' W 001°28'4 8.8
2018-Apr-24 13:30N 50°15' W 001°21'5 9.3
2018-Apr-24 12:58N 50°16' W 001°14'510.1
2018-Apr-24 12:26N 50°18' W 001°06'511.0
2018-Apr-24 12:00N 50°19' W 000°58'611.6
2018-Apr-24 11:30N 50°21' W 000°50'611.8
2018-Apr-24 11:00N 50°22' W 000°41'612.1
2018-Apr-24 10:31N 50°24' W 000°32'612.0
2018-Apr-24 10:00N 50°25' W 000°22'611.9
2018-Apr-24 09:30N 50°27' W 000°13'611.7
2018-Apr-24 09:01N 50°29' W 000°05'611.7
2018-Apr-24 08:30N 50°30' E 000°04'611.5
2018-Apr-24 08:00N 50°31' E 000°13'611.2
2018-Apr-24 07:31N 50°33' E 000°21'510.9
2018-Apr-24 07:00N 50°34' E 000°30'510.5
2018-Apr-24 06:30N 50°37' E 000°37'510.3
2018-Apr-24 06:00N 50°40' E 000°44'5 9.9
2018-Apr-24 05:31N 50°42' E 000°50'5 9.6
2018-Apr-24 05:00N 50°45' E 000°57'5 9.4
2018-Apr-24 04:31N 50°48' E 001°03'6 9.4
2018-Apr-24 03:55N 50°51' E 001°10'4 9.5
2018-Apr-24 03:28N 50°53' E 001°16'510.0
2018-Apr-24 03:00N 50°57' E 001°21'510.7
2018-Apr-24 02:30N 51°01' E 001°26'611.3
2018-Apr-24 02:00N 51°05' E 001°32'611.6
2018-Apr-24 01:31N 51°09' E 001°39'611.5
2018-Apr-24 01:00N 51°13' E 001°45'511.0
2018-Apr-24 00:30N 51°18' E 001°49'510.7
2018-Apr-24 00:00N 51°23' E 001°53'510.3
2018-Apr-23 23:31N 51°27' E 001°57'510.1
2018-Apr-23 23:01N 51°31' E 002°01'510.0
2018-Apr-23 22:30N 51°35' E 002°07'5 9.7
2018-Apr-23 21:59N 51°39' E 002°12'5 9.2
2018-Apr-23 21:30N 51°42' E 002°17'5 9.4
2018-Apr-23 21:00N 51°46' E 002°22'5 9.1
2018-Apr-23 20:26N 51°50' E 002°27'6 9.0
2018-Apr-23 19:45N 51°55' E 002°32'2 9.1
2018-Apr-23 19:30N 51°57' E 002°34'6610.9
2018-Apr-23 13:25N 53°03' E 002°25'612.4
2018-Apr-23 12:59N 53°07' E 002°19'912.7
2018-Apr-23 12:14N 53°14' E 002°08'312.4
2018-Apr-23 12:00N 53°16' E 002°05'8211.1
2018-Apr-23 04:38N 54°21' E 000°41'211.0
2018-Apr-23 04:29N 54°22' E 000°38'511.0
2018-Apr-23 04:00N 54°25' E 000°31'611.0
2018-Apr-23 03:30N 54°28' E 000°23'510.9
2018-Apr-23 03:01N 54°30' E 000°14'510.9
2018-Apr-23 02:30N 54°33' E 000°06'611.1
2018-Apr-23 02:01N 54°36' W 000°02'611.2
2018-Apr-23 01:31N 54°38' W 000°10'611.3
2018-Apr-23 01:00N 54°41' W 000°19'1811.6
2018-Apr-22 23:29N 54°50' W 000°46'511.6
2018-Apr-22 23:01N 54°53' W 000°54'611.6
2018-Apr-22 22:30N 54°55' W 001°03'611.6
2018-Apr-22 22:00N 54°58' W 001°12'611.4
2018-Apr-22 21:30N 55°01' W 001°20'4 7.6
2018-Apr-22 21:00N 55°00' W 001°27'1 2.0
2018-Apr-22 20:30N 54°59' W 001°27'0 0.0
2018-Apr-22 19:54N 54°59' W 001°27'0 0.0
2018-Apr-22 19:30N 54°59' W 001°27'0 0.0
2018-Apr-22 19:00N 54°59' W 001°27'0 0.0
2018-Apr-22 18:30N 54°59' W 001°27'0 0.0
2018-Apr-22 18:00N 54°59' W 001°27'0 0.0
2018-Apr-22 17:27N 54°59' W 001°27'0 0.0
2018-Apr-22 16:48N 54°59' W 001°27'0 0.0
2018-Apr-22 16:30N 54°59' W 001°27'0 0.0
2018-Apr-22 16:00N 54°59' W 001°27'0 0.0
2018-Apr-22 15:27N 54°59' W 001°27'0 0.0
2018-Apr-22 15:00N 54°59' W 001°27'0 0.0
2018-Apr-22 14:27N 54°59' W 001°27'0 0.0
2018-Apr-22 14:00N 54°59' W 001°27'0 0.0
2018-Apr-22 13:30N 54°59' W 001°27'0 0.0
2018-Apr-22 13:00N 54°59' W 001°27'0 0.0
2018-Apr-22 12:30N 54°59' W 001°27'0 0.0
2018-Apr-22 12:00N 54°59' W 001°27'0 0.0
2018-Apr-22 11:30N 54°59' W 001°27'0 0.0
2018-Apr-22 11:00N 54°59' W 001°27'0 0.0
2018-Apr-22 10:30N 54°59' W 001°27'0 0.0
2018-Apr-22 10:00N 54°59' W 001°27'0 0.0
2018-Apr-22 09:30N 54°59' W 001°27'0 0.0
2018-Apr-22 09:00N 54°59' W 001°27'0 0.0
2018-Apr-22 08:30N 54°59' W 001°27'0 0.0
2018-Apr-22 08:00N 54°59' W 001°27'0 0.0
2018-Apr-22 07:21N 54°59' W 001°27'0 0.0
2018-Apr-22 06:51N 54°59' W 001°27'0 0.0
2018-Apr-22 06:21N 54°59' W 001°27'0 0.0
2018-Apr-22 05:54N 54°59' W 001°27'0 0.0
2018-Apr-22 05:24N 54°59' W 001°27'0 0.0
2018-Apr-22 04:54N 54°59' W 001°27'0 0.0
2018-Apr-22 04:24N 54°59' W 001°27'0 0.0
2018-Apr-22 03:54N 54°59' W 001°27'0 0.0
2018-Apr-22 03:21N 54°59' W 001°27'0 0.0
2018-Apr-22 02:54N 54°59' W 001°27'0 0.0
2018-Apr-22 02:24N 54°59' W 001°27'0 0.0
2018-Apr-22 01:57N 54°59' W 001°27'0 0.0
2018-Apr-22 01:27N 54°59' W 001°27'0 0.0
2018-Apr-22 00:57N 54°59' W 001°27'0 0.0
2018-Apr-22 00:27N 54°59' W 001°27'0 0.0
2018-Apr-21 23:57N 54°59' W 001°27'0 0.0
2018-Apr-21 23:30N 54°59' W 001°27'0 0.0
2018-Apr-21 23:00N 54°59' W 001°27'0 0.0
2018-Apr-21 22:30N 54°59' W 001°27'0 0.0
2018-Apr-21 22:00N 54°59' W 001°27'0 0.0
2018-Apr-21 21:30N 54°59' W 001°27'0 0.0
2018-Apr-21 21:00N 54°59' W 001°27'0 0.0
2018-Apr-21 20:30N 54°59' W 001°27'0 0.0
2018-Apr-21 20:00N 54°59' W 001°27'0 0.0
2018-Apr-21 19:30N 54°59' W 001°27'0 0.0
2018-Apr-21 19:00N 54°59' W 001°27'0 0.0
2018-Apr-21 18:30N 54°59' W 001°27'0 0.0
2018-Apr-21 18:00N 54°59' W 001°27'0 0.0
2018-Apr-21 17:30N 54°59' W 001°27'0 0.0
2018-Apr-21 17:00N 54°59' W 001°27'0 0.0
2018-Apr-21 16:30N 54°59' W 001°27'0 0.0
2018-Apr-21 16:00N 54°59' W 001°27'0 0.0
2018-Apr-21 15:30N 54°59' W 001°27'0 0.0
2018-Apr-21 14:54N 54°59' W 001°27'0 0.0
2018-Apr-21 14:24N 54°59' W 001°27'0 0.0
2018-Apr-21 13:57N 54°59' W 001°27'0 0.0
2018-Apr-21 13:27N 54°59' W 001°27'0 0.0
2018-Apr-21 12:54N 54°59' W 001°27'0 0.0
2018-Apr-21 12:24N 54°59' W 001°27'0 0.0
2018-Apr-21 12:00N 54°59' W 001°27'0 0.0
2018-Apr-21 11:27N 54°59' W 001°27'0 0.0
2018-Apr-21 11:00N 54°59' W 001°27'0 0.0
2018-Apr-21 10:30N 54°59' W 001°27'0 0.0
2018-Apr-21 09:57N 54°59' W 001°27'0 0.0
2018-Apr-21 09:30N 54°59' W 001°27'0 0.0
2018-Apr-21 09:00N 54°59' W 001°27'0 0.0
2018-Apr-21 08:30N 54°59' W 001°27'0 0.0
2018-Apr-21 08:00N 54°59' W 001°27'0 0.0
2018-Apr-21 07:30N 54°59' W 001°27'0 0.0
2018-Apr-21 07:00N 54°59' W 001°27'0 0.0
2018-Apr-21 06:30N 54°59' W 001°27'0 0.0
2018-Apr-21 05:59N 54°59' W 001°27'0 0.0
2018-Apr-21 05:29N 54°59' W 001°27'0 0.0
2018-Apr-21 04:59N 54°59' W 001°27'0 0.0
2018-Apr-21 04:29N 54°59' W 001°27'0 0.0
2018-Apr-21 03:59N 54°59' W 001°27'0 0.0
2018-Apr-21 03:29N 54°59' W 001°27'0 0.0
2018-Apr-21 02:59N 54°59' W 001°27'0 0.0
2018-Apr-21 02:29N 54°59' W 001°27'0 0.0
2018-Apr-21 01:59N 54°59' W 001°27'0 0.0
2018-Apr-21 01:29N 54°59' W 001°27'0 0.0
2018-Apr-21 00:59N 54°59' W 001°27'0 0.0
2018-Apr-21 00:29N 54°59' W 001°27'0 0.0
2018-Apr-20 23:59N 54°59' W 001°27'0 0.0
2018-Apr-20 23:29N 54°59' W 001°27'0 0.0
2018-Apr-20 22:59N 54°59' W 001°27'0 0.0
2018-Apr-20 22:29N 54°59' W 001°27'0 0.0
2018-Apr-20 21:59N 54°59' W 001°27'0 0.0
2018-Apr-20 21:29N 54°59' W 001°27'0 0.0
2018-Apr-20 20:59N 54°59' W 001°27'0 0.0
2018-Apr-20 20:29N 54°59' W 001°27'0 0.0
2018-Apr-20 19:59N 54°59' W 001°27'0 0.0
2018-Apr-20 19:29N 54°59' W 001°27'0 0.0
2018-Apr-20 18:59N 54°59' W 001°27'0 0.0
2018-Apr-20 18:29N 54°59' W 001°27'0 0.0
2018-Apr-20 17:59N 54°59' W 001°27'0 0.0
2018-Apr-20 17:29N 54°59' W 001°27'0 0.0
2018-Apr-20 16:59N 54°59' W 001°27'0 0.0
2018-Apr-20 16:29N 54°59' W 001°27'0 0.0
2018-Apr-20 15:59N 54°59' W 001°27'0 0.0
2018-Apr-20 15:29N 54°59' W 001°27'0 0.0
2018-Apr-20 14:59N 54°59' W 001°27'0 0.0
2018-Apr-20 14:29N 54°59' W 001°27'0 0.0
2018-Apr-20 13:56N 54°59' W 001°27'0 0.0
2018-Apr-20 13:29N 54°59' W 001°27'0 0.0
2018-Apr-20 12:59N 54°59' W 001°27'0 0.0
2018-Apr-20 12:29N 54°59' W 001°27'0 0.0
2018-Apr-20 11:59N 54°59' W 001°27'0 0.0
2018-Apr-20 11:29N 54°59' W 001°27'0 0.0
2018-Apr-20 10:59N 54°59' W 001°27'0 0.0
2018-Apr-20 10:29N 54°59' W 001°27'0 0.0
2018-Apr-20 09:59N 54°59' W 001°27'0 0.0
2018-Apr-20 09:29N 54°59' W 001°27'0 0.0
2018-Apr-20 08:59N 54°59' W 001°27'0 0.0
2018-Apr-20 08:23N 54°59' W 001°27'0 0.0
2018-Apr-20 07:59N 54°59' W 001°27'0 0.0
2018-Apr-20 07:29N 54°59' W 001°27'0 0.0
2018-Apr-20 06:59N 54°59' W 001°27'0 0.0
2018-Apr-20 06:29N 54°59' W 001°27'0 0.0
2018-Apr-20 05:59N 54°59' W 001°27'0 0.0
2018-Apr-20 05:29N 54°59' W 001°27'0 0.0
2018-Apr-20 04:59N 54°59' W 001°27'0 0.0
2018-Apr-20 04:29N 54°59' W 001°27'0 0.0
2018-Apr-20 03:59N 54°59' W 001°27'0 0.0
2018-Apr-20 03:29N 54°59' W 001°27'0 0.0
2018-Apr-20 02:59N 54°59' W 001°27'0 0.0
2018-Apr-20 02:29N 54°59' W 001°27'0 0.0
2018-Apr-20 01:59N 54°59' W 001°27'0 0.0
2018-Apr-20 01:29N 54°59' W 001°27'0 0.0
2018-Apr-20 00:59N 54°59' W 001°27'0 0.0
2018-Apr-20 00:29N 54°59' W 001°27'0 0.0
2018-Apr-19 23:59N 54°59' W 001°27'0 0.0
2018-Apr-19 23:29N 54°59' W 001°27'0 0.0
2018-Apr-19 22:59N 54°59' W 001°27'0 0.0
2018-Apr-19 22:29N 54°59' W 001°27'0 0.0
2018-Apr-19 21:59N 54°59' W 001°27'0 0.0
2018-Apr-19 21:29N 54°59' W 001°27'0 0.0
2018-Apr-19 20:59N 54°59' W 001°27'0 0.0
2018-Apr-19 20:29N 54°59' W 001°27'0 0.0
2018-Apr-19 19:59N 54°59' W 001°27'0 0.0
2018-Apr-19 19:29N 54°59' W 001°27'0 0.0
2018-Apr-19 18:59N 54°59' W 001°27'0 0.0
2018-Apr-19 18:29N 54°59' W 001°27'0 0.0
2018-Apr-19 17:59N 54°59' W 001°27'0 0.0
2018-Apr-19 17:29N 54°59' W 001°27'0 0.0
2018-Apr-19 16:59N 54°59' W 001°27'0 0.0
2018-Apr-19 16:29N 54°59' W 001°27'0 0.0
2018-Apr-19 15:59N 54°59' W 001°27'0 0.0
2018-Apr-19 15:29N 54°59' W 001°27'0 0.0
2018-Apr-19 14:59N 54°59' W 001°27'0 0.0
2018-Apr-19 14:29N 54°59' W 001°27'0 0.0
2018-Apr-19 13:59N 54°59' W 001°27'0 0.0
2018-Apr-19 13:26N 54°59' W 001°27'0 0.0
2018-Apr-19 12:59N 54°59' W 001°27'0 0.0
2018-Apr-19 12:29N 54°59' W 001°27'0 0.0
2018-Apr-19 11:59N 54°59' W 001°27'0 0.0
2018-Apr-19 11:29N 54°59' W 001°27'0 0.0
2018-Apr-19 10:59N 54°59' W 001°27'0 0.0
2018-Apr-19 10:29N 54°59' W 001°27'0 0.0
2018-Apr-19 09:59N 54°59' W 001°27'0 0.0
2018-Apr-19 09:29N 54°59' W 001°27'0 0.0
2018-Apr-19 08:59N 54°59' W 001°27'0 0.0
2018-Apr-19 08:29N 54°59' W 001°27'0 0.0
2018-Apr-19 07:59N 54°59' W 001°27'0 0.0
2018-Apr-19 07:29N 54°59' W 001°27'0 0.0
2018-Apr-19 06:59N 54°59' W 001°27'0 0.0
2018-Apr-19 06:29N 54°59' W 001°27'0 0.0
2018-Apr-19 05:59N 54°59' W 001°27'0 0.0
2018-Apr-19 05:29N 54°59' W 001°27'0 0.0
2018-Apr-19 04:59N 54°59' W 001°27'0 0.0
2018-Apr-19 04:29N 54°59' W 001°27'0 0.0
2018-Apr-19 03:59N 54°59' W 001°27'0 0.0
2018-Apr-19 03:29N 54°59' W 001°27'0 0.0
2018-Apr-19 02:59N 54°59' W 001°27'0 0.0
2018-Apr-19 02:29N 54°59' W 001°27'0 0.0
2018-Apr-19 01:59N 54°59' W 001°27'0 0.0
2018-Apr-19 01:29N 54°59' W 001°27'0 0.0
2018-Apr-19 00:59N 54°59' W 001°27'0 0.0
2018-Apr-19 00:29N 54°59' W 001°27'0 0.0
2018-Apr-18 23:59N 54°59' W 001°27'0 0.0
2018-Apr-18 23:29N 54°59' W 001°27'0 0.0
2018-Apr-18 22:59N 54°59' W 001°27'0 0.0
2018-Apr-18 22:29N 54°59' W 001°27'0 0.0
2018-Apr-18 21:59N 54°59' W 001°27'0 0.0
2018-Apr-18 21:26N 54°59' W 001°27'0 0.0
2018-Apr-18 20:59N 54°59' W 001°27'0 0.0
2018-Apr-18 20:29N 54°59' W 001°27'0 0.0
2018-Apr-18 19:59N 54°59' W 001°27'0 0.0
2018-Apr-18 19:29N 54°59' W 001°27'0 0.0
2018-Apr-18 18:59N 54°59' W 001°27'0 0.0
2018-Apr-18 18:29N 54°59' W 001°27'0 0.0
2018-Apr-18 17:59N 54°59' W 001°27'0 0.0
2018-Apr-18 17:29N 54°59' W 001°27'0 0.0
2018-Apr-18 16:59N 54°59' W 001°27'0 0.0
2018-Apr-18 16:29N 54°59' W 001°27'0 0.0
2018-Apr-18 15:59N 54°59' W 001°27'0 0.0
2018-Apr-18 15:29N 54°59' W 001°27'0 0.0
2018-Apr-18 14:59N 54°59' W 001°27'0 0.0
2018-Apr-18 14:29N 54°59' W 001°27'0 0.0
2018-Apr-18 13:59N 54°59' W 001°27'0 0.0
2018-Apr-18 13:29N 54°59' W 001°27'0 0.0
2018-Apr-18 12:59N 54°59' W 001°27'0 0.0
2018-Apr-18 12:29N 54°59' W 001°27'0 0.0
2018-Apr-18 11:59N 54°59' W 001°27'0 0.0
2018-Apr-18 11:26N 54°59' W 001°27'0 0.0
2018-Apr-18 10:59N 54°59' W 001°27'0 0.0
2018-Apr-18 10:29N 54°59' W 001°27'0 0.0
2018-Apr-18 09:59N 54°59' W 001°27'0 0.0
2018-Apr-18 09:29N 54°59' W 001°27'0 0.0
2018-Apr-18 08:59N 54°59' W 001°27'0 0.0
2018-Apr-18 08:29N 54°59' W 001°27'0 0.0
2018-Apr-18 07:59N 54°59' W 001°27'0 0.0
2018-Apr-18 07:29N 54°59' W 001°27'0 0.0
2018-Apr-18 06:59N 54°59' W 001°27'0 0.0
2018-Apr-18 06:26N 54°59' W 001°27'0 0.0
2018-Apr-18 05:59N 54°59' W 001°27'0 0.0
2018-Apr-18 05:29N 54°59' W 001°27'0 0.0
2018-Apr-18 04:59N 54°59' W 001°27'0 0.0
2018-Apr-18 04:29N 54°59' W 001°27'0 0.0
2018-Apr-18 03:59N 54°59' W 001°27'0 0.0
2018-Apr-18 03:29N 54°59' W 001°27'0 0.0
2018-Apr-18 02:59N 54°59' W 001°27'0 0.0
2018-Apr-18 02:29N 54°59' W 001°27'0 0.0
2018-Apr-18 01:59N 54°59' W 001°27'0 0.0
2018-Apr-18 01:29N 54°59' W 001°27'0 0.0
2018-Apr-18 00:59N 54°59' W 001°27'0 0.0
2018-Apr-18 00:29N 54°59' W 001°27'0 0.0
2018-Apr-17 23:59N 54°59' W 001°27'0 0.0
2018-Apr-17 23:29N 54°59' W 001°27'0 0.0
2018-Apr-17 22:59N 54°59' W 001°27'0 0.0
2018-Apr-17 22:29N 54°59' W 001°27'0 0.0
2018-Apr-17 21:59N 54°59' W 001°27'0 0.0
2018-Apr-17 21:29N 54°59' W 001°27'0 0.0
2018-Apr-17 20:59N 54°59' W 001°27'0 0.0
2018-Apr-17 20:29N 54°59' W 001°27'0 0.0
2018-Apr-17 19:59N 54°59' W 001°27'0 0.0
2018-Apr-17 19:29N 54°59' W 001°27'0 0.0
2018-Apr-17 18:59N 54°59' W 001°27'0 0.0
2018-Apr-17 18:29N 54°59' W 001°27'0 0.0
2018-Apr-17 17:59N 54°59' W 001°27'0 0.0
2018-Apr-17 17:29N 54°59' W 001°27'0 0.0
2018-Apr-17 16:59N 54°59' W 001°27'0 0.0
2018-Apr-17 16:29N 54°59' W 001°27'0 0.0
2018-Apr-17 15:59N 54°59' W 001°27'0 0.0
2018-Apr-17 15:29N 54°59' W 001°27'0 0.0
2018-Apr-17 14:59N 54°59' W 001°27'0 0.0
2018-Apr-17 14:29N 54°59' W 001°27'0 0.0
2018-Apr-17 13:59N 54°59' W 001°27'0 0.0
2018-Apr-17 13:29N 54°59' W 001°27'0 0.0
2018-Apr-17 12:59N 54°59' W 001°27'0 0.0
2018-Apr-17 12:29N 54°59' W 001°27'0 0.0
2018-Apr-17 11:59N 54°59' W 001°27'0 0.0
2018-Apr-17 11:29N 54°59' W 001°27'0 0.0
2018-Apr-17 10:59N 54°59' W 001°27'0 0.0
2018-Apr-17 10:29N 54°59' W 001°27'0 0.3
2018-Apr-17 10:00N 54°59' W 001°27'3 5.0
2018-Apr-17 09:30N 55°01' W 001°24'3 6.2
2018-Apr-17 09:00N 55°03' W 001°20'2 3.8
2018-Apr-17 08:30N 55°05' W 001°19'4 7.3
2018-Apr-17 08:00N 55°08' W 001°18'5 9.7
2018-Apr-17 07:30N 55°13' W 001°16'510.9
2018-Apr-17 07:00N 55°18' W 001°13'510.7
2018-Apr-17 06:30N 55°24' W 001°11'510.8
2018-Apr-17 06:00N 55°29' W 001°08'511.0
2018-Apr-17 05:30N 55°34' W 001°08'611.1
2018-Apr-17 05:00N 55°40' W 001°08'611.2
2018-Apr-17 04:30N 55°45' W 001°08'611.4
2018-Apr-17 04:00N 55°51' W 001°08'611.9
2018-Apr-17 03:30N 55°57' W 001°08'612.0
2018-Apr-17 02:58N 56°03' W 001°08'612.2
2018-Apr-17 02:30N 56°09' W 001°08'612.4
2018-Apr-17 02:00N 56°15' W 001°08'7611.7
2018-Apr-16 19:32N 57°31' W 001°10'110.9
2018-Apr-16 19:28N 57°32' W 001°11'510.7
2018-Apr-16 19:00N 57°36' W 001°17'510.4
2018-Apr-16 18:30N 57°40' W 001°23'510.2
2018-Apr-16 18:00N 57°43' W 001°29'510.0
2018-Apr-16 17:30N 57°47' W 001°36'510.4
2018-Apr-16 17:00N 57°51' W 001°42'610.9
2018-Apr-16 16:30N 57°55' W 001°49'4611.5
2018-Apr-16 12:31N 58°30' W 002°45'012.3
2018-Apr-16 12:30N 58°30' W 002°46'713.4
2018-Apr-16 12:00N 58°35' W 002°53'713.4
2018-Apr-16 11:30N 58°41' W 003°00'612.8
2018-Apr-16 11:00N 58°42' W 003°12'713.6
2018-Apr-16 10:30N 58°43' W 003°26'20510.7
2018-Apr-15 15:19N 55°54' W 007°03'413.9
2018-Apr-15 15:00N 55°51' W 006°59'815.0
2018-Apr-15 14:30N 55°44' W 006°53'815.9
2018-Apr-15 14:00N 55°37' W 006°47'714.9
2018-Apr-15 13:30N 55°30' W 006°41'714.5
2018-Apr-15 13:00N 55°28' W 006°29'714.6
2018-Apr-15 12:30N 55°26' W 006°17'714.0
2018-Apr-15 12:00N 55°24' W 006°05'713.4
2018-Apr-15 11:30N 55°19' W 005°57'713.5
2018-Apr-15 11:00N 55°14' W 005°51'612.6
2018-Apr-15 10:30N 55°08' W 005°44'1511.8
2018-Apr-15 09:15N 54°56' W 005°30'311.5
2018-Apr-15 09:00N 54°54' W 005°27'510.5
2018-Apr-15 08:30N 54°50' W 005°21'510.0
2018-Apr-15 08:00N 54°46' W 005°16'510.7
2018-Apr-15 07:30N 54°41' W 005°12'611.5
2018-Apr-15 07:00N 54°35' W 005°10'611.6
2018-Apr-15 06:30N 54°30' W 005°08'611.8
2018-Apr-15 06:00N 54°24' W 005°07'612.4
2018-Apr-15 05:30N 54°18' W 005°05'712.8
2018-Apr-15 05:00N 54°11' W 005°03'4912.8
2018-Apr-15 01:12N 53°39' W 004°01'314.2
2018-Apr-15 01:00N 53°38' W 003°57'713.7
2018-Apr-15 00:30N 53°34' W 003°47'613.2
2018-Apr-15 00:01N 53°33' W 003°36'713.2
2018-Apr-14 23:30N 53°33' W 003°25'510.1
2018-Apr-14 23:00N 53°32' W 003°17'  

Dump ship's entire track history